Scranton, Pennsylvania
Current Conditions -  °F | °C
As of 9:54 PM on Thursday 27 Nov 2014 (Local Time) from KAVP Reporting Station
Broken Clouds Broken Clouds  
Wind Chill: 12°   Ceiling: 3800
Heat Index: 22°   Visibility: 10mi
Dew Point: 19°   Wind: 9mph
Humidity: 89%   Direction: 200°SSW
Pressure: 30.06"   Gusts: NA
Location:  41.41°N, 75.66°W
Report Text: KAVP 280254Z 20008KT 10SM BKN038 M06/M07 A3006 RMK AO2 SLP190 60000 T10561072 51005
Loading
Personal Weather Stations






























Interactive Weather Map New forecast layout! Learn more

10-Day Weather Forecast

Advertisements
Track Severe Weather on mobile